createdAt,value
2023-01-03T00:01:59.592Z,56.28
2023-01-03T00:04:33.189Z,66.05
2023-01-03T00:07:06.561Z,57.15
2023-01-03T00:12:30.407Z,56.10
2023-01-03T00:15:06.162Z,48.58
2023-01-03T00:17:40.029Z,51.53
2023-01-03T00:20:13.645Z,53.55
2023-01-03T00:22:46.901Z,53.92
2023-01-03T00:25:21.771Z,50.10
2023-01-03T00:27:55.103Z,48.03
2023-01-03T00:30:28.336Z,51.22
2023-01-03T00:33:01.604Z,50.58
2023-01-03T00:35:35.084Z,53.10
2023-01-03T00:38:08.938Z,56.53
2023-01-03T00:40:43.606Z,44.83
2023-01-03T00:43:39.289Z,46.20
2023-01-03T00:46:14.361Z,47.58
2023-01-03T00:48:48.107Z,44.65
2023-01-03T00:51:23.870Z,47.08
2023-01-03T00:53:59.809Z,48.90
2023-01-03T00:56:36.564Z,52.60
2023-01-03T00:59:11.536Z,42.33
2023-01-03T01:01:47.998Z,48.00
2023-01-03T01:04:24.308Z,40.00
2023-01-03T01:07:00.349Z,37.17
2023-01-03T01:09:35.986Z,40.00
2023-01-03T01:12:12.027Z,38.67
2023-01-03T01:14:45.812Z,52.78
2023-01-03T01:17:22.758Z,41.65
2023-01-03T01:19:56.791Z,44.75
2023-01-03T01:22:30.354Z,56.80
2023-01-03T01:25:04.077Z,53.58
2023-01-03T01:27:38.679Z,52.58
2023-01-03T01:30:11.945Z,47.72
2023-01-03T01:32:45.238Z,50.35
2023-01-03T01:35:18.510Z,45.35
2023-01-03T01:37:52.077Z,43.90
2023-01-03T01:40:25.506Z,48.15
2023-01-03T01:43:30.136Z,46.72
2023-01-03T01:46:14.133Z,47.17
2023-01-03T01:48:47.848Z,46.08
2023-01-03T01:51:23.982Z,48.65
2023-01-03T01:54:00.649Z,48.63
2023-01-03T01:56:37.713Z,39.72
2023-01-03T01:59:13.599Z,45.60
2023-01-03T02:01:49.504Z,40.95
2023-01-03T02:04:28.249Z,45.17
2023-01-03T02:07:03.371Z,41.05
2023-01-03T02:09:36.675Z,40.88
2023-01-03T02:12:38.772Z,38.22
2023-01-03T02:15:23.580Z,37.70
2023-01-03T02:20:53.286Z,39.80
2023-01-03T02:23:45.732Z,38.50
2023-01-03T02:26:49.748Z,35.83
2023-01-03T02:30:16.403Z,36.93
2023-01-03T02:32:55.304Z,40.13
2023-01-03T02:35:35.114Z,45.83
2023-01-03T02:38:18.741Z,42.78
2023-01-03T02:40:59.692Z,35.75
2023-01-03T02:43:41.158Z,37.40
2023-01-03T02:46:20.988Z,41.75
2023-01-03T02:49:00.398Z,34.25
2023-01-03T02:51:37.935Z,38.35
2023-01-03T02:54:15.733Z,32.15
2023-01-03T02:56:55.611Z,34.20
2023-01-03T02:59:37.205Z,41.13
2023-01-03T03:02:13.359Z,37.08
2023-01-03T03:04:51.825Z,38.85
2023-01-03T03:07:28.010Z,34.88
2023-01-03T03:10:18.917Z,33.78
2023-01-03T03:13:15.652Z,30.05
2023-01-03T03:15:57.369Z,38.17
2023-01-03T03:18:41.119Z,31.77
2023-01-03T03:21:35.760Z,32.67
2023-01-03T03:24:32.207Z,29.98
2023-01-03T03:27:26.159Z,32.72
2023-01-03T03:30:03.771Z,36.72
2023-01-03T03:32:39.684Z,37.08
2023-01-03T03:35:16.976Z,40.35
2023-01-03T03:37:56.026Z,34.63
2023-01-03T03:40:50.894Z,42.42
2023-01-03T03:43:46.841Z,39.83
2023-01-03T03:46:27.891Z,43.20
2023-01-03T03:49:26.748Z,45.85
2023-01-03T03:52:02.747Z,49.85
2023-01-03T03:54:40.274Z,51.45
2023-01-03T03:57:18.986Z,54.03
2023-01-03T03:59:57.554Z,55.00
2023-01-03T04:02:34.203Z,54.33
2023-01-03T04:05:11.860Z,65.35
2023-01-03T04:07:45.575Z,65.57
2023-01-03T04:10:23.673Z,73.55
2023-01-03T04:12:57.629Z,75.80
2023-01-03T04:15:31.367Z,71.25
2023-01-03T04:18:05.061Z,68.53
2023-01-03T04:20:38.362Z,66.35
2023-01-03T04:23:11.787Z,62.60
2023-01-03T04:25:49.143Z,61.60
2023-01-03T04:28:22.336Z,60.45
2023-01-03T04:30:55.891Z,63.70
2023-01-03T04:33:29.084Z,57.42
2023-01-03T04:36:02.427Z,57.83
2023-01-03T04:38:35.895Z,53.40
2023-01-03T04:41:10.868Z,57.88
2023-01-03T04:44:01.689Z,56.10
2023-01-03T04:46:37.491Z,52.90
2023-01-03T04:49:11.637Z,58.05
2023-01-03T04:51:44.874Z,55.22
2023-01-03T04:54:18.126Z,50.42
2023-01-03T04:56:52.856Z,47.63
2023-01-03T04:59:26.038Z,47.38
2023-01-03T05:01:59.679Z,44.97
2023-01-03T05:04:33.471Z,52.00
2023-01-03T05:09:40.156Z,48.78
2023-01-03T05:12:15.465Z,46.78
2023-01-03T05:14:49.126Z,54.97
2023-01-03T05:20:14.112Z,48.10
2023-01-03T05:23:04.905Z,55.40
2023-01-03T05:25:53.500Z,68.22
2023-01-03T05:28:29.574Z,70.78
2023-01-03T05:31:03.009Z,75.57
2023-01-03T05:33:39.327Z,73.07
2023-01-03T05:36:13.036Z,60.92
2023-01-03T05:38:46.197Z,67.88
2023-01-03T05:41:39.900Z,64.50
2023-01-03T05:44:14.750Z,65.70
2023-01-03T05:46:48.016Z,66.55
2023-01-03T05:49:21.384Z,63.72
2023-01-03T05:51:54.881Z,62.00
2023-01-03T05:54:28.084Z,62.75
2023-01-03T05:57:01.603Z,68.10
2023-01-03T05:59:36.584Z,71.60
2023-01-03T06:02:10.011Z,63.17
2023-01-03T06:04:43.372Z,67.85
2023-01-03T06:07:16.871Z,70.50
2023-01-03T06:09:50.337Z,72.72
2023-01-03T06:12:24.307Z,71.07
2023-01-03T06:14:59.293Z,73.32
2023-01-03T06:17:50.656Z,97.80
2023-01-03T06:20:25.338Z,101.10
2023-01-03T06:22:59.000Z,117.18
2023-01-03T06:25:32.193Z,130.80
2023-01-03T06:28:05.693Z,108.05
2023-01-03T06:30:40.356Z,97.35
2023-01-03T06:33:13.989Z,78.82
2023-01-03T06:35:47.449Z,74.07
2023-01-03T06:38:21.081Z,88.43
2023-01-03T06:40:54.370Z,92.32
2023-01-03T06:43:27.836Z,103.80
2023-01-03T06:46:20.749Z,102.43
2023-01-03T06:49:12.023Z,129.70
2023-01-03T06:52:03.427Z,120.22
2023-01-03T06:54:38.537Z,110.95
2023-01-03T06:57:11.943Z,129.50
2023-01-03T07:00:00.432Z,117.00
2023-01-03T07:02:35.539Z,115.60
2023-01-03T07:05:09.853Z,122.65
2023-01-03T07:07:43.291Z,128.25
2023-01-03T07:10:16.631Z,133.63
2023-01-03T07:13:08.255Z,117.45
2023-01-03T07:15:44.803Z,117.70
2023-01-03T07:18:19.521Z,126.90
2023-01-03T07:20:53.869Z,120.57
2023-01-03T07:23:27.279Z,124.13
2023-01-03T07:26:00.504Z,131.23
2023-01-03T07:28:33.865Z,134.70
2023-01-03T07:31:08.437Z,143.93
2023-01-03T07:33:42.949Z,144.20
2023-01-03T07:36:17.625Z,157.45
2023-01-03T07:38:51.272Z,168.88
2023-01-03T07:41:46.027Z,177.25
2023-01-03T07:44:18.743Z,171.75
2023-01-03T07:46:52.338Z,159.90
2023-01-03T07:49:27.135Z,200.68
2023-01-03T07:52:01.142Z,196.13
2023-01-03T07:54:34.470Z,195.55
2023-01-03T07:57:08.008Z,186.68
2023-01-03T07:59:41.370Z,177.23
2023-01-03T08:02:15.115Z,149.45
2023-01-03T08:04:49.987Z,128.55
2023-01-03T08:07:23.365Z,106.53
2023-01-03T08:10:22.433Z,91.72
2023-01-03T08:13:13.866Z,85.47
2023-01-03T08:15:50.551Z,71.63
2023-01-03T08:18:26.080Z,67.93
2023-01-03T08:21:01.173Z,59.30
2023-01-03T08:23:35.401Z,59.53
2023-01-03T08:26:09.933Z,57.70
2023-01-03T08:28:45.159Z,56.28
2023-01-03T08:31:22.358Z,56.80
2023-01-03T08:33:59.110Z,53.08
2023-01-03T08:36:37.324Z,54.70
2023-01-03T08:39:14.762Z,56.22
2023-01-03T08:41:53.887Z,49.88
2023-01-03T08:44:27.311Z,51.15
2023-01-03T08:47:04.119Z,64.22
2023-01-03T08:49:38.305Z,53.67
2023-01-03T08:52:13.332Z,50.75
2023-01-03T08:54:46.801Z,51.47
2023-01-03T08:57:20.200Z,38.70
2023-01-03T09:02:27.450Z,38.13
2023-01-03T09:05:01.026Z,40.65
2023-01-03T09:07:35.971Z,43.30
2023-01-03T09:10:10.897Z,45.38
2023-01-03T09:12:44.837Z,41.25
2023-01-03T09:15:18.502Z,40.65
2023-01-03T09:17:52.042Z,38.80
2023-01-03T09:20:25.488Z,39.83
2023-01-03T09:25:37.224Z,32.70
2023-01-03T09:28:11.461Z,38.78
2023-01-03T09:30:44.869Z,32.88
2023-01-03T09:33:18.199Z,29.20
2023-01-03T09:35:54.233Z,33.83
2023-01-03T09:38:29.488Z,28.17
2023-01-03T09:41:06.370Z,31.95
2023-01-03T09:43:43.676Z,27.83
2023-01-03T09:46:20.046Z,29.90
2023-01-03T09:48:55.415Z,35.53
2023-01-03T09:51:50.295Z,30.75
2023-01-03T09:54:48.554Z,27.13
2023-01-03T09:57:44.084Z,33.85
2023-01-03T10:00:42.658Z,31.52
2023-01-03T10:03:50.909Z,31.35
2023-01-03T10:06:35.924Z,25.98
2023-01-03T10:09:25.201Z,34.88
2023-01-03T10:12:11.497Z,31.80
2023-01-03T10:15:01.522Z,30.00
2023-01-03T10:17:47.793Z,41.45
2023-01-03T10:20:33.352Z,42.03
2023-01-03T10:23:09.071Z,36.95
2023-01-03T10:25:45.707Z,35.92
2023-01-03T10:28:22.979Z,32.30
2023-01-03T10:31:11.476Z,35.83
2023-01-03T10:33:46.495Z,33.00
2023-01-03T10:36:22.731Z,38.88
2023-01-03T10:39:08.503Z,47.13
2023-01-03T10:41:45.065Z,44.45
2023-01-03T10:44:28.781Z,40.75
2023-01-03T10:47:11.017Z,37.05
2023-01-03T10:49:46.526Z,39.25
2023-01-03T10:52:22.930Z,39.53
2023-01-03T10:55:01.838Z,35.55
2023-01-03T10:57:43.718Z,36.85
2023-01-03T11:00:28.001Z,32.85
2023-01-03T11:05:47.721Z,46.47
2023-01-03T11:08:23.992Z,42.03
2023-01-03T11:10:59.323Z,35.97
2023-01-03T11:13:38.996Z,32.45
2023-01-03T11:16:17.646Z,34.60
2023-01-03T11:19:01.295Z,33.85
2023-01-03T11:21:43.496Z,38.60
2023-01-03T11:24:30.284Z,46.97
2023-01-03T11:27:11.613Z,35.83
2023-01-03T11:29:56.541Z,49.13
2023-01-03T11:32:47.635Z,44.42
2023-01-03T11:35:49.401Z,25.25
2023-01-03T11:38:47.834Z,31.40
2023-01-03T11:41:37.117Z,23.75
2023-01-03T11:44:44.221Z,24.15
2023-01-03T11:47:27.138Z,24.83
2023-01-03T11:50:16.909Z,23.63
2023-01-03T11:53:01.525Z,23.98
2023-01-03T11:58:58.319Z,24.05
2023-01-03T12:01:53.411Z,24.85
2023-01-03T12:10:16.146Z,22.95
2023-01-03T12:13:11.854Z,21.27
2023-01-03T12:15:50.702Z,21.80
2023-01-03T12:18:41.304Z,17.38
2023-01-03T12:21:20.838Z,20.17
2023-01-03T12:24:00.003Z,22.50
2023-01-03T12:26:36.060Z,16.92
2023-01-03T12:29:17.537Z,19.58
2023-01-03T12:31:58.416Z,21.70
2023-01-03T12:34:40.077Z,22.30
2023-01-03T12:37:17.143Z,21.52
2023-01-03T12:39:56.619Z,23.20
2023-01-03T12:42:39.486Z,35.00
2023-01-03T12:45:34.240Z,25.55
2023-01-03T12:48:18.799Z,23.80
2023-01-03T12:53:33.156Z,21.30
2023-01-03T12:56:25.579Z,23.05
2023-01-03T12:59:10.578Z,18.42
2023-01-03T13:01:47.420Z,20.13
2023-01-03T13:04:24.649Z,18.45
2023-01-03T13:07:06.013Z,15.20
2023-01-03T13:09:43.498Z,15.85
2023-01-03T13:12:22.417Z,15.15
2023-01-03T13:14:59.790Z,14.70
2023-01-03T13:17:43.676Z,19.10
2023-01-03T13:20:28.519Z,16.38
2023-01-03T13:23:02.773Z,20.45
2023-01-03T13:25:41.872Z,19.42
2023-01-03T13:28:34.249Z,25.35
2023-01-03T13:31:37.013Z,18.20
2023-01-03T13:34:34.611Z,16.48
2023-01-03T13:37:19.453Z,19.63
2023-01-03T13:40:18.274Z,19.30
2023-01-03T13:43:03.680Z,14.80
2023-01-03T13:46:00.917Z,15.32
2023-01-03T13:48:39.924Z,16.42
2023-01-03T13:51:43.293Z,15.10
2023-01-03T13:54:56.031Z,17.33
2023-01-03T13:57:38.520Z,15.52
2023-01-03T14:00:18.787Z,20.90
2023-01-03T14:03:21.885Z,15.40
2023-01-03T14:06:22.018Z,20.98
2023-01-03T14:09:17.219Z,18.33
2023-01-03T14:12:20.096Z,23.15
2023-01-03T14:14:56.173Z,13.65
2023-01-03T14:17:33.181Z,15.93
2023-01-03T14:20:12.685Z,11.32
2023-01-03T14:22:49.375Z,15.32
2023-01-03T14:25:37.588Z,19.10
2023-01-03T14:28:19.153Z,14.10
2023-01-03T14:31:01.836Z,18.90
2023-01-03T14:33:39.444Z,19.80
2023-01-03T14:36:18.124Z,28.75
2023-01-03T14:38:53.695Z,25.42
2023-01-03T14:41:30.749Z,21.42
2023-01-03T14:44:07.236Z,23.83
2023-01-03T14:46:49.257Z,20.63
2023-01-03T14:49:25.748Z,18.20
2023-01-03T14:52:06.755Z,23.48
2023-01-03T14:54:44.868Z,26.35
2023-01-03T14:57:20.868Z,41.85
2023-01-03T14:59:57.458Z,42.85
2023-01-03T15:02:36.860Z,25.90
2023-01-03T15:05:24.826Z,24.90
2023-01-03T15:08:10.664Z,49.53
2023-01-03T15:10:49.377Z,48.60
2023-01-03T15:13:27.333Z,33.15
2023-01-03T15:16:03.700Z,26.58
2023-01-03T15:18:40.924Z,187.18
2023-01-03T15:21:17.860Z,102.32
2023-01-03T15:23:55.722Z,46.92
2023-01-03T15:26:39.623Z,30.15
2023-01-03T15:29:14.866Z,27.40
2023-01-03T15:31:52.448Z,23.65
2023-01-03T15:34:36.846Z,27.25
2023-01-03T15:37:17.118Z,32.38
2023-01-03T15:39:55.344Z,28.30
2023-01-03T15:42:58.015Z,82.88
2023-01-03T15:45:37.923Z,46.55
2023-01-03T15:48:19.829Z,37.75
2023-01-03T15:50:55.903Z,31.65
2023-01-03T15:53:31.250Z,39.08
2023-01-03T15:56:11.716Z,59.85
2023-01-03T15:58:45.676Z,61.13
2023-01-03T16:03:53.801Z,82.97
2023-01-03T16:09:00.482Z,154.15
2023-01-03T16:11:35.187Z,251.48
2023-01-03T16:14:14.559Z,246.85
2023-01-03T16:16:53.483Z,205.20
2023-01-03T16:19:29.415Z,377.95
2023-01-03T16:22:33.932Z,293.27
2023-01-03T16:25:00.667Z,185.43
2023-01-03T16:27:35.571Z,109.93
2023-01-03T16:30:11.531Z,86.45
2023-01-03T16:32:45.211Z,79.32
2023-01-03T16:35:20.850Z,64.72
2023-01-03T16:37:54.366Z,57.45
2023-01-03T16:40:27.612Z,50.65
2023-01-03T16:43:02.220Z,62.55
2023-01-03T16:45:43.467Z,42.38
2023-01-03T16:48:23.824Z,53.92
2023-01-03T16:50:57.171Z,51.88
2023-01-03T16:53:36.183Z,40.88
2023-01-03T16:56:12.642Z,45.97
2023-01-03T16:58:47.415Z,43.75
2023-01-03T17:01:21.384Z,47.25
2023-01-03T17:03:54.693Z,51.78
2023-01-03T17:06:37.903Z,44.88
2023-01-03T17:09:17.388Z,51.13
2023-01-03T17:11:56.343Z,46.15
2023-01-03T17:14:36.284Z,52.70
2023-01-03T17:17:17.986Z,40.58
2023-01-03T17:20:07.486Z,45.58
2023-01-03T17:22:40.933Z,37.03
2023-01-03T17:25:14.234Z,34.80
2023-01-03T17:27:52.793Z,34.78
2023-01-03T17:30:29.676Z,28.27
2023-01-03T17:33:03.888Z,34.00
2023-01-03T17:35:39.091Z,33.67
2023-01-03T17:38:25.871Z,43.08
2023-01-03T17:41:00.301Z,33.42
2023-01-03T17:43:33.562Z,38.55
2023-01-03T17:46:35.995Z,38.00
2023-01-03T17:49:26.447Z,34.67
2023-01-03T17:52:02.737Z,38.25
2023-01-03T17:54:38.201Z,41.42
2023-01-03T17:57:13.802Z,34.60
2023-01-03T17:59:47.279Z,36.90
2023-01-03T18:02:24.443Z,46.85
2023-01-03T18:05:17.290Z,36.00
2023-01-03T18:07:52.376Z,31.75
2023-01-03T18:10:33.335Z,31.17
2023-01-03T18:13:20.037Z,29.88
2023-01-03T18:15:54.384Z,27.15
2023-01-03T18:18:29.694Z,28.92
2023-01-03T18:21:03.367Z,30.50
2023-01-03T18:23:39.781Z,30.40
2023-01-03T18:26:16.353Z,34.72
2023-01-03T18:28:49.763Z,39.67
2023-01-03T18:31:23.181Z,36.60
2023-01-03T18:33:58.609Z,35.78
2023-01-03T18:36:38.362Z,37.05
2023-01-03T18:39:15.253Z,42.33
2023-01-03T18:41:48.587Z,44.63
2023-01-03T18:44:24.329Z,38.55
2023-01-03T18:46:58.142Z,49.05
2023-01-03T18:49:33.023Z,49.20
2023-01-03T18:52:07.023Z,47.83
2023-01-03T18:54:40.538Z,55.25
2023-01-03T18:59:47.694Z,63.50
2023-01-03T19:02:23.255Z,63.22
2023-01-03T19:04:58.337Z,60.33
2023-01-03T19:07:34.430Z,56.60
2023-01-03T19:10:19.973Z,39.97
2023-01-03T19:12:56.914Z,37.03
2023-01-03T19:15:30.934Z,45.92
2023-01-03T19:18:05.163Z,42.17
2023-01-03T19:20:39.833Z,47.95
2023-01-03T19:23:20.628Z,52.08
2023-01-03T19:25:56.141Z,56.00
2023-01-03T19:28:29.573Z,55.40
2023-01-03T19:31:03.261Z,56.25
2023-01-03T19:33:36.592Z,50.08
2023-01-03T19:36:15.779Z,51.58
2023-01-03T19:38:50.302Z,59.80
2023-01-03T19:41:23.752Z,53.38
2023-01-03T19:43:57.088Z,51.40
2023-01-03T19:46:30.791Z,58.55
2023-01-03T19:49:04.015Z,54.70
2023-01-03T19:51:38.644Z,59.13
2023-01-03T19:54:12.358Z,53.25
2023-01-03T19:56:46.022Z,55.55
2023-01-03T19:59:25.363Z,51.95
2023-01-03T20:02:23.907Z,48.22
2023-01-03T20:04:52.652Z,55.58
2023-01-03T20:07:27.316Z,56.03
2023-01-03T20:10:00.692Z,55.47
2023-01-03T20:12:35.534Z,60.83
2023-01-03T20:15:23.213Z,55.40
2023-01-03T20:17:57.141Z,60.45
2023-01-03T20:20:32.602Z,52.47
2023-01-03T20:23:15.127Z,64.70
2023-01-03T20:25:50.374Z,59.72
2023-01-03T20:28:29.566Z,62.78
2023-01-03T20:31:03.364Z,62.88
2023-01-03T20:33:36.843Z,58.00
2023-01-03T20:36:22.464Z,64.90
2023-01-03T20:38:58.707Z,63.03
2023-01-03T20:41:37.367Z,64.80
2023-01-03T20:44:11.284Z,60.80
2023-01-03T20:46:44.743Z,57.90
2023-01-03T20:49:20.947Z,59.80
2023-01-03T20:51:54.969Z,55.35
2023-01-03T20:54:29.666Z,54.67
2023-01-03T20:57:03.109Z,56.50
2023-01-03T20:59:36.655Z,39.63
2023-01-03T21:02:11.112Z,43.90
2023-01-03T21:04:44.492Z,46.45
2023-01-03T21:07:27.964Z,49.03
2023-01-03T21:10:01.886Z,39.03
2023-01-03T21:12:37.645Z,35.03
2023-01-03T21:15:12.112Z,35.90
2023-01-03T21:17:50.625Z,37.95
2023-01-03T21:20:25.943Z,32.00
2023-01-03T21:22:59.836Z,26.70
2023-01-03T21:25:36.952Z,34.08
2023-01-03T21:28:11.228Z,28.92
2023-01-03T21:30:44.413Z,32.75
2023-01-03T21:33:19.196Z,33.65
2023-01-03T21:35:52.581Z,50.05
2023-01-03T21:41:01.009Z,54.47
2023-01-03T21:43:34.323Z,54.00
2023-01-03T21:46:08.090Z,52.78
2023-01-03T21:48:41.414Z,46.83
2023-01-03T21:51:20.849Z,52.85
2023-01-03T21:54:03.716Z,51.40
2023-01-03T21:56:46.160Z,51.00
2023-01-03T21:59:20.084Z,40.25
2023-01-03T22:02:11.366Z,48.10
2023-01-03T22:04:44.661Z,39.65
2023-01-03T22:07:18.052Z,47.95
2023-01-03T22:10:09.132Z,33.65
2023-01-03T22:12:44.750Z,35.10
2023-01-03T22:15:18.751Z,32.85
2023-01-03T22:20:28.409Z,43.28
2023-01-03T22:23:04.152Z,42.05
2023-01-03T22:25:37.424Z,44.42
2023-01-03T22:33:18.971Z,46.92
2023-01-03T22:35:52.282Z,53.92
2023-01-03T22:38:25.424Z,59.70
2023-01-03T22:40:58.715Z,46.50
2023-01-03T22:43:34.415Z,47.38
2023-01-03T22:46:08.660Z,45.40
2023-01-03T22:48:42.832Z,46.45
2023-01-03T22:51:17.534Z,45.22
2023-01-03T22:53:50.706Z,48.55
2023-01-03T22:56:23.994Z,56.88
2023-01-03T22:58:58.667Z,43.70
2023-01-03T23:01:32.244Z,50.33
2023-01-03T23:04:06.902Z,52.63
2023-01-03T23:06:40.293Z,56.00
2023-01-03T23:09:14.603Z,55.58
2023-01-03T23:12:06.289Z,51.05
2023-01-03T23:14:41.428Z,44.78
2023-01-03T23:17:32.795Z,46.10
2023-01-03T23:20:07.468Z,46.92
2023-01-03T23:22:41.064Z,47.55
2023-01-03T23:25:14.188Z,43.83
2023-01-03T23:27:47.546Z,50.60
2023-01-03T23:30:22.212Z,45.25
2023-01-03T23:32:55.556Z,41.58
2023-01-03T23:35:29.292Z,38.42
2023-01-03T23:38:03.133Z,33.05
2023-01-03T23:40:40.760Z,40.47
2023-01-03T23:43:13.938Z,44.75
2023-01-03T23:45:49.096Z,45.75
2023-01-03T23:48:23.001Z,42.97
2023-01-03T23:51:03.342Z,44.78
2023-01-03T23:53:38.151Z,46.53
2023-01-03T23:56:14.471Z,41.80
2023-01-03T23:58:47.812Z,44.33
